createdAt,value
2019-04-10T00:02:31.325Z,99218.75
2019-04-10T00:05:07.692Z,99214.16
2019-04-10T00:07:43.874Z,99217.24
2019-04-10T00:10:19.692Z,99220.83
2019-04-10T00:12:56.140Z,99216.61
2019-04-10T00:15:32.687Z,99215.05
2019-04-10T00:18:10.118Z,99211.40
2019-04-10T00:20:47.510Z,99218.53
2019-04-10T00:23:23.366Z,99223.72
2019-04-10T00:25:59.422Z,99214.88
2019-04-10T00:28:35.875Z,99223.56
2019-04-10T00:31:11.745Z,99216.64
2019-04-10T00:33:47.610Z,99213.25
2019-04-10T00:36:23.472Z,99217.11
2019-04-10T00:38:59.311Z,99215.95
2019-04-10T00:41:35.171Z,99216.10
2019-04-10T00:44:11.199Z,99219.21
2019-04-10T00:46:47.088Z,99222.53
2019-04-10T00:49:23.899Z,99224.92
2019-04-10T00:51:59.919Z,99231.35
2019-04-10T00:54:35.967Z,99224.44
2019-04-10T00:57:12.647Z,99233.67
2019-04-10T00:59:48.708Z,99234.69
2019-04-10T01:02:24.812Z,99234.09
2019-04-10T01:05:00.828Z,99228.09
2019-04-10T01:07:40.169Z,99229.50
2019-04-10T01:10:14.363Z,99234.22
2019-04-10T01:12:50.292Z,99231.45
2019-04-10T01:15:26.704Z,99232.69
2019-04-10T01:18:02.657Z,99228.09
2019-04-10T01:20:38.509Z,99231.16
2019-04-10T01:23:14.355Z,99227.19
2019-04-10T01:25:50.523Z,99227.61
2019-04-10T01:28:26.828Z,99229.39
2019-04-10T01:31:02.737Z,99225.44
2019-04-10T01:33:38.817Z,99225.34
2019-04-10T01:36:15.085Z,99225.97
2019-04-10T01:38:51.760Z,99218.64
2019-04-10T01:41:27.904Z,99224.59
2019-04-10T01:44:03.763Z,99216.77
2019-04-10T01:46:40.263Z,99218.00
2019-04-10T01:49:16.180Z,99216.36
2019-04-10T01:51:52.034Z,99213.32
2019-04-10T01:54:28.017Z,99213.32
2019-04-10T01:57:04.143Z,99219.62
2019-04-10T01:59:40.825Z,99215.66
2019-04-10T02:02:19.230Z,99212.00
2019-04-10T02:04:55.594Z,99213.70
2019-04-10T02:07:32.483Z,99210.80
2019-04-10T02:10:08.338Z,99211.68
2019-04-10T02:12:45.142Z,99211.48
2019-04-10T02:15:21.716Z,99204.50
2019-04-10T02:17:57.733Z,99205.14
2019-04-10T02:20:34.641Z,99211.36
2019-04-10T02:23:12.292Z,99212.38
2019-04-10T02:25:49.303Z,99211.68
2019-04-10T02:28:25.356Z,99215.31
2019-04-10T02:31:02.841Z,99215.22
2019-04-10T02:33:39.009Z,99209.42
2019-04-10T02:36:14.855Z,99208.05
2019-04-10T02:39:03.322Z,99204.30
2019-04-10T02:41:29.709Z,99207.25
2019-04-10T02:44:05.905Z,99202.13
2019-04-10T02:46:41.885Z,99203.14
2019-04-10T02:49:18.434Z,99209.25
2019-04-10T02:51:54.993Z,99202.77
2019-04-10T02:54:30.967Z,99205.35
2019-04-10T02:57:07.445Z,99205.88
2019-04-10T02:59:45.233Z,99205.03
2019-04-10T03:02:22.040Z,99205.99
2019-04-10T03:04:59.378Z,99207.52
2019-04-10T03:07:35.908Z,99206.99
2019-04-10T03:10:21.772Z,99197.91
2019-04-10T03:12:49.843Z,99210.36
2019-04-10T03:15:27.228Z,99206.99
2019-04-10T03:18:04.173Z,99202.56
2019-04-10T03:20:41.168Z,99208.78
2019-04-10T03:23:17.645Z,99202.92
2019-04-10T03:25:53.489Z,99204.06
2019-04-10T03:28:29.353Z,99204.53
2019-04-10T03:31:07.700Z,99209.22
2019-04-10T03:34:01.009Z,99216.34
2019-04-10T03:36:39.974Z,99212.80
2019-04-10T03:39:16.003Z,99222.81
2019-04-10T03:41:52.894Z,99218.45
2019-04-10T03:44:28.734Z,99225.04
2019-04-10T03:47:04.959Z,99220.23
2019-04-10T03:49:40.752Z,99215.34
2019-04-10T03:52:16.902Z,99213.79
2019-04-10T03:54:52.977Z,99215.58
2019-04-10T03:57:28.904Z,99228.44
2019-04-10T04:00:09.903Z,99227.12
2019-04-10T04:02:46.391Z,99223.48
2019-04-10T04:05:22.468Z,99226.56
2019-04-10T04:07:59.162Z,99217.63
2019-04-10T04:10:35.194Z,99223.95
2019-04-10T04:13:11.183Z,99222.42
2019-04-10T04:15:47.178Z,99220.11
2019-04-10T04:22:10.542Z,99228.55
2019-04-10T04:24:48.988Z,99225.33
2019-04-10T04:34:56.698Z,99230.16
2019-04-10T04:37:55.894Z,99230.63
2019-04-10T04:41:17.494Z,99233.58
2019-04-10T04:44:20.273Z,99248.09
2019-04-10T04:46:57.000Z,99245.78
2019-04-10T04:49:36.063Z,99252.29
2019-04-10T04:52:16.306Z,99256.19
2019-04-10T04:54:55.285Z,99258.73
2019-04-10T04:57:34.167Z,99246.55
2019-04-10T05:00:09.814Z,99251.63
2019-04-10T05:02:53.684Z,99253.94
2019-04-10T05:05:37.327Z,99255.34
2019-04-10T05:08:15.303Z,99252.70
2019-04-10T05:11:24.508Z,99262.31
2019-04-10T05:14:19.476Z,99263.25
2019-04-10T05:16:55.555Z,99265.60
2019-04-10T05:19:31.392Z,99269.55
2019-04-10T05:22:08.023Z,99274.36
2019-04-10T05:24:44.648Z,99276.60
2019-04-10T05:27:20.522Z,99276.31
2019-04-10T05:29:56.314Z,99280.28
2019-04-10T05:32:32.961Z,99272.92
2019-04-10T05:35:10.063Z,99283.05
2019-04-10T05:37:45.987Z,99284.97
2019-04-10T05:40:21.872Z,99289.25
2019-04-10T05:42:57.664Z,99290.55
2019-04-10T05:45:33.879Z,99288.44
2019-04-10T05:48:10.994Z,99291.67
2019-04-10T05:50:54.029Z,99291.38
2019-04-10T05:53:24.647Z,99297.83
2019-04-10T05:56:01.501Z,99291.17
2019-04-10T05:58:37.360Z,99292.55
2019-04-10T06:01:13.584Z,99286.37
2019-04-10T06:03:49.405Z,99295.61
2019-04-10T06:06:25.237Z,99295.08
2019-04-10T06:09:02.623Z,99286.60
2019-04-10T06:11:39.492Z,99300.73
2019-04-10T06:14:16.196Z,99298.42
2019-04-10T06:16:52.869Z,99291.09
2019-04-10T06:19:28.915Z,99295.28
2019-04-10T06:22:05.248Z,99295.28
2019-04-10T06:24:41.104Z,99291.73
2019-04-10T06:27:16.885Z,99292.91
2019-04-10T06:29:53.144Z,99293.28
2019-04-10T06:32:29.591Z,99289.83
2019-04-10T06:35:08.155Z,99289.83
2019-04-10T06:37:44.232Z,99285.08
2019-04-10T06:40:23.851Z,99286.34
2019-04-10T06:42:58.392Z,99286.87
2019-04-10T06:45:35.752Z,99294.05
2019-04-10T06:48:13.040Z,99287.33
2019-04-10T06:50:48.837Z,99286.21
2019-04-10T06:53:24.845Z,99286.91
2019-04-10T06:56:00.771Z,99288.70
2019-04-10T06:58:38.128Z,99283.20
2019-04-10T07:01:14.758Z,99289.87
2019-04-10T07:03:59.170Z,99291.62
2019-04-10T07:06:43.756Z,99290.67
2019-04-10T07:09:07.663Z,99292.83
2019-04-10T07:11:45.207Z,99290.78
2019-04-10T07:14:21.061Z,99289.30
2019-04-10T07:17:01.642Z,99292.20
2019-04-10T07:19:34.520Z,99290.63
2019-04-10T07:22:13.932Z,99292.52
2019-04-10T07:24:48.246Z,99292.41
2019-04-10T07:27:24.123Z,99292.94
2019-04-10T07:30:01.468Z,99290.57
2019-04-10T07:32:41.232Z,99294.00
2019-04-10T07:35:19.582Z,99293.69
2019-04-10T07:37:56.651Z,99289.41
2019-04-10T07:40:34.940Z,99292.20
2019-04-10T07:43:08.570Z,99298.66
2019-04-10T07:45:44.414Z,99296.90
2019-04-10T07:48:20.549Z,99301.23
2019-04-10T07:50:56.541Z,99307.13
2019-04-10T07:53:33.185Z,99308.45
2019-04-10T07:56:14.885Z,99313.42
2019-04-10T07:58:48.189Z,99312.51
2019-04-10T08:01:24.351Z,99313.54
2019-04-10T08:04:00.316Z,99311.84
2019-04-10T08:06:37.193Z,99312.38
2019-04-10T08:09:13.245Z,99308.97
2019-04-10T08:11:49.123Z,99314.80
2019-04-10T08:14:24.952Z,99308.56
2019-04-10T08:17:00.805Z,99315.25
2019-04-10T08:19:37.004Z,99306.13
2019-04-10T08:22:14.462Z,99308.75
2019-04-10T08:24:51.239Z,99306.30
2019-04-10T08:27:27.683Z,99314.41
2019-04-10T08:30:03.977Z,99314.41
2019-04-10T08:32:50.884Z,99315.39
2019-04-10T08:35:17.508Z,99311.11
2019-04-10T08:37:53.525Z,99309.85
2019-04-10T08:40:30.023Z,99304.80
2019-04-10T08:43:06.291Z,99306.66
2019-04-10T08:45:47.144Z,99307.62
2019-04-10T08:48:19.808Z,99304.89
2019-04-10T08:50:56.732Z,99301.82
2019-04-10T08:53:32.705Z,99305.13
2019-04-10T08:56:08.963Z,99304.12
2019-04-10T08:58:45.355Z,99303.17
2019-04-10T09:01:21.181Z,99305.23
2019-04-10T09:03:57.435Z,99307.23
2019-04-10T09:06:33.589Z,99298.45
2019-04-10T09:09:09.811Z,99302.18
2019-04-10T09:11:45.818Z,99301.00
2019-04-10T09:14:21.609Z,99308.23
2019-04-10T09:16:58.538Z,99306.20
2019-04-10T09:19:36.232Z,99301.64
2019-04-10T09:22:12.102Z,99303.53
2019-04-10T09:24:48.853Z,99294.72
2019-04-10T09:27:24.794Z,99294.88
2019-04-10T09:30:00.972Z,99298.52
2019-04-10T09:32:37.219Z,99297.95
2019-04-10T09:35:14.054Z,99297.84
2019-04-10T09:37:50.458Z,99293.27
2019-04-10T09:40:27.848Z,99294.41
2019-04-10T09:43:03.677Z,99285.53
2019-04-10T09:45:39.447Z,99295.65
2019-04-10T09:48:15.260Z,99294.97
2019-04-10T09:50:51.061Z,99292.63
2019-04-10T09:53:26.887Z,99296.12
2019-04-10T09:56:03.684Z,99297.09
2019-04-10T09:58:40.547Z,99295.06
2019-04-10T10:01:16.330Z,99298.48
2019-04-10T10:03:52.793Z,99291.50
2019-04-10T10:06:33.433Z,99295.22
2019-04-10T10:09:08.365Z,99288.86
2019-04-10T10:11:44.862Z,99286.78
2019-04-10T10:14:20.985Z,99289.53
2019-04-10T10:16:56.764Z,99290.23
2019-04-10T10:19:32.897Z,99290.77
2019-04-10T10:22:09.661Z,99296.30
2019-04-10T10:24:45.440Z,99296.84
2019-04-10T10:27:21.986Z,99297.89
2019-04-10T10:29:59.908Z,99293.45
2019-04-10T10:32:35.903Z,99288.02
2019-04-10T10:35:11.739Z,99289.56
2019-04-10T10:37:48.461Z,99286.81
2019-04-10T10:40:25.533Z,99292.31
2019-04-10T10:43:02.444Z,99286.13
2019-04-10T10:45:38.731Z,99291.92
2019-04-10T10:48:15.674Z,99296.02
2019-04-10T10:50:53.295Z,99284.06
2019-04-10T10:53:30.397Z,99293.14
2019-04-10T10:56:06.391Z,99288.14
2019-04-10T10:58:42.174Z,99290.69
2019-04-10T11:01:18.067Z,99289.76
2019-04-10T11:03:54.195Z,99292.77
2019-04-10T11:06:30.962Z,99301.46
2019-04-10T11:09:10.209Z,99280.70
2019-04-10T11:11:49.487Z,99287.88
2019-04-10T11:14:25.379Z,99281.54
2019-04-10T11:17:03.393Z,99291.84
2019-04-10T11:19:39.533Z,99286.29
2019-04-10T11:22:21.803Z,99286.84
2019-04-10T11:24:52.820Z,99302.08
2019-04-10T11:27:29.399Z,99296.31
2019-04-10T11:30:08.259Z,99305.63
2019-04-10T11:32:44.531Z,99297.51
2019-04-10T11:35:21.779Z,99298.38
2019-04-10T11:38:00.519Z,99305.91
2019-04-10T11:40:35.195Z,99307.30
2019-04-10T11:43:12.567Z,99301.91
2019-04-10T11:45:52.445Z,99299.86
2019-04-10T11:48:28.484Z,99298.16
2019-04-10T11:51:03.835Z,99300.61
2019-04-10T11:53:44.524Z,99312.45
2019-04-10T11:56:19.201Z,99298.36
2019-04-10T11:58:56.879Z,99298.94
2019-04-10T12:01:34.776Z,99301.48
2019-04-10T12:04:10.914Z,99299.61
2019-04-10T12:06:50.215Z,99299.34
2019-04-10T12:12:01.971Z,99299.30
2019-04-10T12:14:37.758Z,99296.16
2019-04-10T12:17:13.847Z,99298.53
2019-04-10T12:19:49.681Z,99297.38
2019-04-10T12:22:25.525Z,99300.52
2019-04-10T12:25:01.378Z,99303.45
2019-04-10T12:27:37.242Z,99298.70
2019-04-10T12:30:13.906Z,99299.77
2019-04-10T12:32:50.693Z,99292.75
2019-04-10T12:35:26.597Z,99287.15
2019-04-10T12:38:07.011Z,99297.40
2019-04-10T12:40:40.615Z,99296.55
2019-04-10T12:43:16.748Z,99299.09
2019-04-10T12:45:52.730Z,99294.27
2019-04-10T12:48:28.679Z,99296.62
2019-04-10T12:51:05.629Z,99296.16
2019-04-10T12:53:41.617Z,99293.03
2019-04-10T12:56:17.844Z,99301.42
2019-04-10T12:58:53.828Z,99292.67
2019-04-10T13:01:30.929Z,99285.75
2019-04-10T13:04:07.561Z,99287.35
2019-04-10T13:06:44.288Z,99281.50
2019-04-10T13:09:20.317Z,99284.99
2019-04-10T13:11:56.527Z,99283.05
2019-04-10T13:14:32.836Z,99277.86
2019-04-10T13:17:08.922Z,99287.16
2019-04-10T13:19:45.043Z,99283.58
2019-04-10T13:22:20.815Z,99287.92
2019-04-10T13:24:57.677Z,99282.98
2019-04-10T13:27:33.560Z,99286.11
2019-04-10T13:30:13.063Z,99287.16
2019-04-10T13:32:50.078Z,99284.30
2019-04-10T13:35:26.180Z,99290.02
2019-04-10T13:38:03.138Z,99290.19
2019-04-10T13:40:39.520Z,99284.87
2019-04-10T13:43:15.974Z,99285.06
2019-04-10T13:45:52.321Z,99283.50
2019-04-10T13:48:29.070Z,99285.95
2019-04-10T13:51:05.375Z,99284.83
2019-04-10T13:53:41.902Z,99282.73
2019-04-10T13:56:17.778Z,99289.30
2019-04-10T13:58:53.639Z,99289.39
2019-04-10T14:01:35.672Z,99290.45
2019-04-10T14:04:11.579Z,99288.56
2019-04-10T14:06:49.135Z,99289.34
2019-04-10T14:09:34.845Z,99280.81
2019-04-10T14:12:03.886Z,99289.46
2019-04-10T14:14:40.490Z,99292.11
2019-04-10T14:17:17.353Z,99282.45
2019-04-10T14:19:54.123Z,99289.65
2019-04-10T14:22:30.042Z,99284.14
2019-04-10T14:25:07.934Z,99282.64
2019-04-10T14:27:44.550Z,99289.28
2019-04-10T14:30:25.283Z,99283.02
2019-04-10T14:33:01.129Z,99292.87
2019-04-10T14:35:36.996Z,99295.33
2019-04-10T14:38:13.041Z,99289.66
2019-04-10T14:40:49.408Z,99292.30
2019-04-10T14:43:25.680Z,99290.69
2019-04-10T14:46:02.684Z,99292.88
2019-04-10T14:48:38.625Z,99285.84
2019-04-10T14:51:14.562Z,99286.70
2019-04-10T14:53:51.116Z,99283.77
2019-04-10T14:56:28.252Z,99289.92
2019-04-10T14:59:04.188Z,99289.64
2019-04-10T15:01:40.041Z,99288.70
2019-04-10T15:04:17.182Z,99291.27
2019-04-10T15:06:53.372Z,99298.55
2019-04-10T15:09:30.594Z,99299.59
2019-04-10T15:12:07.280Z,99298.06
2019-04-10T15:14:44.229Z,99299.87
2019-04-10T15:17:21.042Z,99303.83
2019-04-10T15:19:57.251Z,99302.03
2019-04-10T15:22:33.830Z,99306.49
2019-04-10T15:25:10.922Z,99310.55
2019-04-10T15:27:46.875Z,99312.44
2019-04-10T15:30:22.718Z,99313.11
2019-04-10T15:32:58.569Z,99313.88
2019-04-10T15:35:34.850Z,99316.69
2019-04-10T15:38:11.713Z,99311.75
2019-04-10T15:40:47.669Z,99310.98
2019-04-10T15:43:24.919Z,99316.50
2019-04-10T15:46:02.258Z,99312.89
2019-04-10T15:48:38.200Z,99315.44
2019-04-10T15:51:14.191Z,99314.70
2019-04-10T15:53:51.399Z,99316.77
2019-04-10T15:56:27.660Z,99318.28
2019-04-10T15:59:03.916Z,99313.42
2019-04-10T16:01:39.825Z,99313.05
2019-04-10T16:04:15.691Z,99314.13
2019-04-10T16:06:51.617Z,99317.53
2019-04-10T16:09:29.375Z,99323.71
2019-04-10T16:12:08.122Z,99322.44
2019-04-10T16:14:44.436Z,99327.07
2019-04-10T16:17:31.853Z,99322.50
2019-04-10T16:20:19.642Z,99326.15
2019-04-10T16:22:57.171Z,99333.29
2019-04-10T16:25:34.027Z,99328.13
2019-04-10T16:28:11.052Z,99341.38
2019-04-10T16:30:46.986Z,99333.67
2019-04-10T16:33:23.272Z,99339.63
2019-04-10T16:36:00.972Z,99333.19
2019-04-10T16:38:36.911Z,99334.95
2019-04-10T16:41:12.656Z,99334.28
2019-04-10T16:43:48.817Z,99335.61
2019-04-10T16:46:24.680Z,99338.44
2019-04-10T16:49:00.533Z,99345.54
2019-04-10T16:51:36.613Z,99348.56
2019-04-10T16:54:12.649Z,99340.86
2019-04-10T16:56:48.496Z,99344.45
2019-04-10T16:59:24.254Z,99343.69
2019-04-10T17:02:00.726Z,99346.88
2019-04-10T17:04:37.703Z,99354.35
2019-04-10T17:07:14.585Z,99351.16
2019-04-10T17:09:51.477Z,99355.23
2019-04-10T17:12:29.561Z,99361.37
2019-04-10T17:15:08.098Z,99362.41
2019-04-10T17:17:44.466Z,99363.32
2019-04-10T17:20:20.706Z,99362.34
2019-04-10T17:22:56.584Z,99367.47
2019-04-10T17:25:32.395Z,99370.47
2019-04-10T17:28:08.391Z,99367.52
2019-04-10T17:30:44.266Z,99363.91
2019-04-10T17:33:20.683Z,99373.83
2019-04-10T17:35:57.746Z,99376.89
2019-04-10T17:38:34.873Z,99377.19
2019-04-10T17:41:11.222Z,99387.00
2019-04-10T17:43:47.537Z,99393.63
2019-04-10T17:46:23.553Z,99389.42
2019-04-10T17:48:59.402Z,99400.25
2019-04-10T17:51:36.337Z,99410.53
2019-04-10T17:54:12.230Z,99399.56
2019-04-10T17:56:48.516Z,99413.83
2019-04-10T17:59:24.715Z,99409.92
2019-04-10T18:02:02.251Z,99416.33
2019-04-10T18:04:38.105Z,99430.25
2019-04-10T18:07:14.241Z,99425.42
2019-04-10T18:09:50.718Z,99426.20
2019-04-10T18:12:26.703Z,99430.95
2019-04-10T18:15:04.058Z,99435.88
2019-04-10T18:17:40.836Z,99442.18
2019-04-10T18:20:17.785Z,99439.29
2019-04-10T18:22:53.803Z,99442.25
2019-04-10T18:25:29.799Z,99449.41
2019-04-10T18:28:05.806Z,99445.37
2019-04-10T18:30:41.672Z,99452.59
2019-04-10T18:33:18.274Z,99449.50
2019-04-10T18:35:55.286Z,99458.52
2019-04-10T18:38:31.275Z,99457.20
2019-04-10T18:41:08.967Z,99464.19
2019-04-10T18:43:44.719Z,99469.58
2019-04-10T18:46:22.299Z,99471.38
2019-04-10T18:48:59.009Z,99470.12
2019-04-10T18:51:36.013Z,99475.03
2019-04-10T18:54:12.464Z,99474.63
2019-04-10T18:56:49.407Z,99483.04
2019-04-10T18:59:45.444Z,99481.66
2019-04-10T19:05:52.055Z,99485.84
2019-04-10T19:08:30.257Z,99494.33
2019-04-10T19:11:15.306Z,99493.47
2019-04-10T19:13:43.711Z,99492.63
2019-04-10T19:16:20.072Z,99494.26
2019-04-10T19:18:56.853Z,99494.33
2019-04-10T19:21:33.016Z,99493.53
2019-04-10T19:24:09.799Z,99492.75
2019-04-10T19:26:45.741Z,99497.35
2019-04-10T19:29:21.595Z,99493.66
2019-04-10T19:31:58.986Z,99489.57
2019-04-10T19:34:34.829Z,99497.41
2019-04-10T19:37:10.683Z,99492.66
2019-04-10T19:39:46.726Z,99492.81
2019-04-10T19:42:22.598Z,99497.41
2019-04-10T19:44:59.530Z,99491.64
2019-04-10T19:47:36.650Z,99495.72
2019-04-10T19:50:13.077Z,99497.20
2019-04-10T19:52:49.303Z,99493.13
2019-04-10T19:55:25.142Z,99503.55
2019-04-10T19:58:01.778Z,99492.81
2019-04-10T20:00:38.872Z,99498.95
2019-04-10T20:03:15.301Z,99493.98
2019-04-10T20:05:51.349Z,99493.22
2019-04-10T20:08:27.954Z,99490.89
2019-04-10T20:11:03.865Z,99498.05
2019-04-10T20:13:40.878Z,99490.17
2019-04-10T20:16:17.395Z,99495.46
2019-04-10T20:18:53.371Z,99493.76
2019-04-10T20:21:30.067Z,99499.74
2019-04-10T20:24:05.997Z,99500.97
2019-04-10T20:26:41.854Z,99498.64
2019-04-10T20:29:17.705Z,99499.21
2019-04-10T20:31:55.346Z,99501.76
2019-04-10T20:34:31.758Z,99503.17
2019-04-10T20:37:09.863Z,99501.44
2019-04-10T20:39:45.483Z,99503.23
2019-04-10T20:42:22.492Z,99503.17
2019-04-10T20:44:59.079Z,99510.64
2019-04-10T20:47:35.202Z,99510.38
2019-04-10T20:50:12.033Z,99510.55
2019-04-10T20:52:47.979Z,99515.99
2019-04-10T20:55:25.811Z,99521.37
2019-04-10T20:58:03.533Z,99521.76
2019-04-10T21:00:43.249Z,99519.05
2019-04-10T21:03:19.689Z,99514.45
2019-04-10T21:05:56.262Z,99520.44
2019-04-10T21:08:32.208Z,99520.50
2019-04-10T21:11:08.062Z,99521.44
2019-04-10T21:13:45.045Z,99529.70
2019-04-10T21:16:20.894Z,99527.90
2019-04-10T21:18:56.746Z,99534.45
2019-04-10T21:21:34.907Z,99532.50
2019-04-10T21:24:11.393Z,99539.02
2019-04-10T21:26:48.471Z,99537.84
2019-04-10T21:29:42.480Z,99533.19
2019-04-10T21:32:36.354Z,99532.55
2019-04-10T21:35:13.855Z,99537.68
2019-04-10T21:37:50.649Z,99532.86
2019-04-10T21:40:27.197Z,99543.50
2019-04-10T21:43:03.755Z,99547.56
2019-04-10T21:45:39.622Z,99541.16
2019-04-10T21:48:16.706Z,99535.30
2019-04-10T21:50:53.583Z,99540.44
2019-04-10T21:53:31.824Z,99548.63
2019-04-10T21:56:08.341Z,99538.20
2019-04-10T21:58:46.510Z,99547.05
2019-04-10T22:01:22.640Z,99541.12
2019-04-10T22:04:00.558Z,99542.91
2019-04-10T22:06:39.718Z,99541.05
2019-04-10T22:09:34.927Z,99548.14
2019-04-10T22:12:24.045Z,99546.55
2019-04-10T22:14:53.143Z,99549.41
2019-04-10T22:17:29.095Z,99556.84
2019-04-10T22:20:06.015Z,99550.38
2019-04-10T22:22:42.742Z,99554.94
2019-04-10T22:25:19.495Z,99550.18
2019-04-10T22:27:56.230Z,99548.95
2019-04-10T22:30:32.913Z,99551.33
2019-04-10T22:33:08.816Z,99551.73
2019-04-10T22:35:44.879Z,99553.06
2019-04-10T22:38:21.536Z,99556.76
2019-04-10T22:40:58.136Z,99545.71
2019-04-10T22:43:34.251Z,99548.89
2019-04-10T22:46:10.937Z,99551.67
2019-04-10T22:48:47.700Z,99552.29
2019-04-10T22:51:24.751Z,99547.06
2019-04-10T22:54:01.833Z,99551.49
2019-04-10T22:56:37.896Z,99554.46
2019-04-10T22:59:13.749Z,99560.27
2019-04-10T23:02:00.330Z,99555.98
2019-04-10T23:04:28.544Z,99560.20
2019-04-10T23:07:06.025Z,99557.23
2019-04-10T23:09:43.036Z,99562.25
2019-04-10T23:12:18.915Z,99562.91
2019-04-10T23:14:55.387Z,99557.69
2019-04-10T23:17:31.452Z,99553.29
2019-04-10T23:20:08.941Z,99556.78
2019-04-10T23:22:54.668Z,99550.84
2019-04-10T23:25:45.208Z,99551.70
2019-04-10T23:28:27.306Z,99559.95
2019-04-10T23:31:03.637Z,99558.30
2019-04-10T23:33:39.927Z,99561.00
2019-04-10T23:36:16.082Z,99557.59
2019-04-10T23:38:52.146Z,99565.25
2019-04-10T23:41:29.594Z,99561.75
2019-04-10T23:44:06.755Z,99566.23
2019-04-10T23:46:43.350Z,99572.97
2019-04-10T23:49:20.095Z,99558.70
2019-04-10T23:51:55.954Z,99561.34
2019-04-10T23:54:31.795Z,99561.48
2019-04-10T23:57:07.655Z,99563.40
2019-04-10T23:59:44.602Z,99560.20
